Terminal Aerodrome Forecast
Issued by NWS North Platte, NE

Home | Current Version | Previous Version | Text Only | Print | Product List | Glossary On
Versions: 1 2 3 4 5 6 7 8 9 10 11 12 13 14 15 16 17 18 19 20 21 22 23 24 25 26 27 28
000
FTUS43 KLBF 160520
TAFVTN
TAF
KVTN 160520Z 1606/1706 VRB04KT P6SM SCT250
     FM161700 31007KT P6SM VCSH SCT090
     FM161800 32008KT P6SM VCSH BKN080
     FM170000 08006KT P6SM BKN080=

USA.gov is the U.S. government's official web portal to all federal, state and local government web resources and services.